Dubai International Airport

OMDB | DXB

Dubai , Dubai , United Arab Emirates

Thursday, October 24th, 2019 | 08:58

Weather

OMDB 240400Z 15003KT 050V190 4000 HZ NSC 28/25 Q1012 BECMG 7000 NSW

Charts

1 Available

Gates

221 Available

Runways

2 Available

Events

No events for this airport


New event